createdAt,value
2023-05-15T00:01:25.793Z,27.30
2023-05-15T00:03:55.147Z,24.63
2023-05-15T00:06:23.524Z,27.98
2023-05-15T00:08:51.432Z,23.35
2023-05-15T00:11:19.406Z,22.50
2023-05-15T00:13:47.265Z,25.38
2023-05-15T00:16:16.606Z,24.35
2023-05-15T00:18:44.609Z,26.08
2023-05-15T00:21:12.769Z,26.98
2023-05-15T00:23:40.766Z,26.00
2023-05-15T00:26:08.621Z,29.13
2023-05-15T00:28:36.689Z,20.20
2023-05-15T00:31:04.598Z,25.40
2023-05-15T00:33:35.504Z,24.25
2023-05-15T00:36:04.428Z,24.52
2023-05-15T00:38:33.708Z,28.05
2023-05-15T00:41:02.692Z,29.00
2023-05-15T00:43:30.964Z,21.70
2023-05-15T00:45:59.671Z,27.60
2023-05-15T00:48:28.668Z,33.30
2023-05-15T00:50:59.360Z,32.00
2023-05-15T00:53:28.319Z,26.55
2023-05-15T00:55:58.415Z,24.83
2023-05-15T00:58:28.974Z,29.35
2023-05-15T01:00:57.297Z,24.58
2023-05-15T01:03:25.360Z,28.10
2023-05-15T01:05:53.479Z,29.60
2023-05-15T01:08:28.044Z,29.80
2023-05-15T01:10:56.976Z,27.00
2023-05-15T01:13:26.296Z,25.92
2023-05-15T01:15:56.094Z,24.67
2023-05-15T01:18:24.085Z,29.48
2023-05-15T01:21:08.404Z,30.75
2023-05-15T01:23:47.358Z,27.92
2023-05-15T01:26:47.229Z,29.85
2023-05-15T01:29:22.980Z,33.88
2023-05-15T01:31:53.192Z,30.15
2023-05-15T01:34:25.114Z,26.88
2023-05-15T01:36:55.252Z,29.10
2023-05-15T01:39:26.369Z,25.88
2023-05-15T01:41:56.930Z,28.20
2023-05-15T01:44:29.456Z,25.73
2023-05-15T01:47:00.103Z,30.83
2023-05-15T01:49:29.579Z,33.55
2023-05-15T01:52:03.091Z,33.03
2023-05-15T01:54:31.132Z,25.90
2023-05-15T01:56:59.144Z,34.30
2023-05-15T01:59:29.214Z,25.70
2023-05-15T02:01:58.303Z,26.98
2023-05-15T02:04:26.972Z,28.35
2023-05-15T02:06:55.340Z,28.63
2023-05-15T02:09:24.257Z,29.75
2023-05-15T02:11:52.568Z,30.83
2023-05-15T02:14:20.946Z,30.42
2023-05-15T02:16:50.342Z,32.50
2023-05-15T02:19:18.522Z,29.98
2023-05-15T02:21:46.623Z,36.60
2023-05-15T02:24:14.579Z,30.17
2023-05-15T02:26:49.497Z,34.63
2023-05-15T02:29:21.176Z,31.08
2023-05-15T02:31:55.586Z,30.88
2023-05-15T02:34:29.626Z,38.00
2023-05-15T02:36:59.889Z,31.45
2023-05-15T02:39:28.528Z,33.08
2023-05-15T02:41:57.088Z,38.83
2023-05-15T02:44:26.116Z,42.30
2023-05-15T02:46:55.902Z,44.42
2023-05-15T02:49:24.233Z,37.75
2023-05-15T02:51:52.246Z,39.22
2023-05-15T02:54:20.254Z,45.08
2023-05-15T02:56:48.399Z,42.95
2023-05-15T02:59:19.852Z,48.10
2023-05-15T03:01:48.173Z,46.70
2023-05-15T03:04:17.781Z,49.45
2023-05-15T03:06:45.726Z,51.70
2023-05-15T03:09:13.733Z,51.20
2023-05-15T03:11:41.738Z,59.92
2023-05-15T03:14:09.742Z,47.78
2023-05-15T03:16:39.071Z,53.88
2023-05-15T03:19:07.130Z,53.10
2023-05-15T03:21:36.403Z,53.35
2023-05-15T03:24:04.614Z,55.40
2023-05-15T03:26:32.883Z,60.03
2023-05-15T03:29:02.034Z,52.05
2023-05-15T03:31:30.520Z,49.88
2023-05-15T03:33:58.398Z,49.10
2023-05-15T03:36:26.423Z,53.63
2023-05-15T03:38:55.742Z,49.35
2023-05-15T03:41:23.716Z,45.95
2023-05-15T03:43:51.663Z,47.28
2023-05-15T03:46:20.352Z,39.42
2023-05-15T03:48:48.231Z,41.88
2023-05-15T03:51:16.446Z,41.60
2023-05-15T03:53:44.294Z,44.10
2023-05-15T03:56:13.651Z,42.47
2023-05-15T03:58:42.197Z,40.80
2023-05-15T04:01:10.067Z,49.70
2023-05-15T04:03:38.273Z,40.72
2023-05-15T04:06:07.008Z,42.97
2023-05-15T04:08:39.224Z,40.72
2023-05-15T04:11:08.323Z,41.33
2023-05-15T04:13:37.659Z,45.95
2023-05-15T04:16:05.966Z,45.10
2023-05-15T04:18:33.927Z,42.80
2023-05-15T04:21:01.788Z,45.33
2023-05-15T04:23:29.822Z,45.05
2023-05-15T04:25:57.872Z,40.35
2023-05-15T04:28:25.742Z,41.85
2023-05-15T04:30:55.064Z,42.72
2023-05-15T04:33:23.037Z,40.63
2023-05-15T04:35:50.948Z,44.35
2023-05-15T04:38:19.216Z,44.38
2023-05-15T04:40:47.331Z,43.75
2023-05-15T04:43:15.679Z,42.80
2023-05-15T04:45:43.693Z,38.58
2023-05-15T04:48:13.175Z,45.08
2023-05-15T04:50:41.217Z,41.72
2023-05-15T04:53:09.070Z,38.85
2023-05-15T04:55:36.983Z,33.05
2023-05-15T04:58:04.854Z,33.55
2023-05-15T05:00:32.784Z,35.03
2023-05-15T05:03:00.850Z,39.33
2023-05-15T05:05:30.574Z,38.75
2023-05-15T05:07:58.588Z,36.80
2023-05-15T05:10:26.616Z,40.75
2023-05-15T05:12:54.504Z,42.25
2023-05-15T05:15:22.696Z,37.95
2023-05-15T05:17:51.464Z,36.30
2023-05-15T05:20:20.833Z,38.22
2023-05-15T05:22:50.607Z,37.10
2023-05-15T05:25:18.723Z,40.90
2023-05-15T05:27:46.759Z,41.67
2023-05-15T05:30:15.294Z,41.35
2023-05-15T05:32:43.232Z,38.40
2023-05-15T05:35:11.021Z,35.92
2023-05-15T05:37:41.032Z,34.70
2023-05-15T05:40:12.195Z,38.50
2023-05-15T05:42:40.065Z,36.53
2023-05-15T05:45:09.082Z,32.97
2023-05-15T05:47:37.375Z,35.08
2023-05-15T05:50:06.140Z,33.00
2023-05-15T05:52:34.120Z,32.63
2023-05-15T05:55:02.389Z,30.17
2023-05-15T05:57:31.817Z,32.42
2023-05-15T06:00:00.105Z,30.75
2023-05-15T06:02:28.308Z,35.42
2023-05-15T06:04:56.547Z,29.88
2023-05-15T06:07:24.789Z,31.70
2023-05-15T06:09:52.680Z,30.58
2023-05-15T06:12:22.838Z,30.33
2023-05-15T06:14:52.578Z,31.40
2023-05-15T06:17:20.814Z,30.67
2023-05-15T06:19:48.961Z,28.48
2023-05-15T06:22:16.826Z,26.38
2023-05-15T06:24:44.860Z,23.83
2023-05-15T06:27:13.170Z,25.30
2023-05-15T06:29:41.062Z,23.17
2023-05-15T06:32:10.475Z,21.33
2023-05-15T06:34:38.467Z,27.08
2023-05-15T06:37:07.742Z,23.55
2023-05-15T06:39:35.550Z,25.20
2023-05-15T06:42:03.564Z,20.42
2023-05-15T06:44:31.906Z,16.80
2023-05-15T06:47:00.249Z,21.75
2023-05-15T06:49:29.862Z,20.27
2023-05-15T06:51:57.801Z,23.55
2023-05-15T06:54:26.599Z,24.13
2023-05-15T06:56:54.406Z,21.63
2023-05-15T06:59:22.327Z,22.90
2023-05-15T07:01:50.310Z,23.73
2023-05-15T07:04:18.687Z,19.15
2023-05-15T07:06:48.031Z,23.13
2023-05-15T07:09:16.235Z,19.40
2023-05-15T07:11:44.195Z,20.58
2023-05-15T07:14:12.109Z,20.17
2023-05-15T07:16:40.241Z,22.75
2023-05-15T07:19:09.607Z,18.35
2023-05-15T07:21:37.963Z,17.85
2023-05-15T07:24:07.756Z,19.65
2023-05-15T07:26:43.445Z,20.17
2023-05-15T07:29:18.370Z,19.45
2023-05-15T07:31:46.438Z,23.45
2023-05-15T07:34:14.477Z,21.23
2023-05-15T07:36:42.501Z,19.63
2023-05-15T07:39:11.999Z,21.67
2023-05-15T07:41:40.042Z,21.98
2023-05-15T07:44:08.199Z,25.00
2023-05-15T07:46:36.412Z,24.55
2023-05-15T07:49:04.333Z,25.40
2023-05-15T07:51:32.488Z,21.50
2023-05-15T07:54:00.743Z,23.83
2023-05-15T07:56:29.873Z,28.75
2023-05-15T07:58:58.101Z,27.17
2023-05-15T08:01:26.308Z,24.92
2023-05-15T08:03:54.282Z,24.95
2023-05-15T08:06:22.228Z,23.42
2023-05-15T08:08:50.261Z,28.10
2023-05-15T08:11:19.545Z,24.23
2023-05-15T08:13:48.968Z,27.27
2023-05-15T08:16:17.104Z,25.23
2023-05-15T08:18:45.156Z,26.52
2023-05-15T08:21:13.310Z,27.50
2023-05-15T08:23:41.318Z,28.90
2023-05-15T08:26:09.303Z,30.85
2023-05-15T08:28:37.486Z,25.25
2023-05-15T08:31:06.866Z,28.13
2023-05-15T08:33:34.977Z,28.08
2023-05-15T08:36:03.236Z,30.45
2023-05-15T08:38:31.620Z,29.70
2023-05-15T08:41:03.786Z,27.83
2023-05-15T08:43:35.467Z,30.85
2023-05-15T08:46:03.551Z,27.13
2023-05-15T08:48:38.060Z,32.90
2023-05-15T08:51:07.681Z,31.58
2023-05-15T08:53:35.681Z,32.88
2023-05-15T08:56:03.716Z,27.98
2023-05-15T08:58:32.542Z,28.08
2023-05-15T09:01:01.098Z,38.60
2023-05-15T09:03:29.491Z,27.85
2023-05-15T09:05:59.600Z,28.38
2023-05-15T09:08:28.803Z,26.35
2023-05-15T09:10:57.746Z,22.67
2023-05-15T09:13:26.365Z,26.40
2023-05-15T09:15:54.446Z,22.15
2023-05-15T09:18:22.967Z,19.42
2023-05-15T09:20:51.423Z,19.60
2023-05-15T09:23:27.992Z,19.48
2023-05-15T09:25:57.013Z,21.77
2023-05-15T09:28:29.949Z,20.33
2023-05-15T09:31:00.289Z,25.08
2023-05-15T09:33:32.912Z,28.98
2023-05-15T09:36:02.011Z,22.75
2023-05-15T09:38:33.900Z,25.55
2023-05-15T09:41:03.759Z,26.90
2023-05-15T09:43:34.837Z,28.33
2023-05-15T09:46:02.888Z,27.67
2023-05-15T09:48:32.210Z,26.17
2023-05-15T09:51:00.217Z,24.10
2023-05-15T09:53:31.894Z,26.45
2023-05-15T09:55:59.926Z,27.17
2023-05-15T09:58:27.979Z,21.58
2023-05-15T10:00:56.038Z,23.25
2023-05-15T10:03:24.174Z,19.05
2023-05-15T10:05:52.146Z,21.20
2023-05-15T10:08:28.238Z,20.30
2023-05-15T10:11:00.932Z,20.20
2023-05-15T10:13:29.280Z,24.10
2023-05-15T10:15:57.611Z,28.65
2023-05-15T10:18:26.276Z,18.70
2023-05-15T10:20:58.174Z,21.80
2023-05-15T10:23:26.892Z,19.77
2023-05-15T10:26:03.243Z,19.85
2023-05-15T10:28:31.466Z,19.15
2023-05-15T10:31:02.286Z,20.13
2023-05-15T10:33:30.995Z,23.08
2023-05-15T10:36:00.226Z,20.17
2023-05-15T10:38:29.545Z,19.35
2023-05-15T10:41:13.036Z,21.88
2023-05-15T10:43:45.996Z,23.30
2023-05-15T10:46:14.710Z,19.67
2023-05-15T10:48:42.962Z,24.58
2023-05-15T10:51:16.691Z,22.35
2023-05-15T10:53:45.153Z,23.35
2023-05-15T10:56:16.663Z,21.05
2023-05-15T10:58:48.826Z,25.73
2023-05-15T11:01:28.160Z,26.35
2023-05-15T11:04:07.219Z,23.80
2023-05-15T11:06:35.290Z,27.85
2023-05-15T11:09:36.840Z,31.00
2023-05-15T11:12:07.952Z,30.38
2023-05-15T11:14:41.064Z,32.10
2023-05-15T11:17:10.309Z,32.72
2023-05-15T11:19:40.286Z,29.45
2023-05-15T11:22:19.449Z,35.10
2023-05-15T11:24:52.576Z,42.20
2023-05-15T11:27:23.910Z,39.40
2023-05-15T11:30:14.349Z,40.05
2023-05-15T11:33:00.760Z,46.45
2023-05-15T11:35:30.732Z,46.63
2023-05-15T11:37:59.780Z,52.10
2023-05-15T11:40:29.683Z,50.60
2023-05-15T11:43:07.517Z,53.13
2023-05-15T11:45:37.581Z,56.47
2023-05-15T11:48:09.203Z,49.40
2023-05-15T11:50:37.208Z,51.35
2023-05-15T11:53:06.440Z,51.40
2023-05-15T11:55:35.450Z,49.10
2023-05-15T11:58:05.279Z,47.78
2023-05-15T12:00:33.298Z,49.90
2023-05-15T12:03:01.261Z,47.17
2023-05-15T12:05:29.256Z,51.40
2023-05-15T12:07:57.090Z,45.88
2023-05-15T12:10:25.503Z,43.53
2023-05-15T12:12:53.664Z,42.65
2023-05-15T12:15:23.060Z,38.25
2023-05-15T12:17:51.813Z,39.35
2023-05-15T12:20:20.460Z,36.97
2023-05-15T12:22:48.306Z,40.40
2023-05-15T12:25:17.737Z,34.20
2023-05-15T12:27:45.963Z,34.75
2023-05-15T12:30:15.516Z,35.05
2023-05-15T12:32:45.069Z,35.20
2023-05-15T12:35:12.987Z,32.08
2023-05-15T12:37:41.274Z,37.95
2023-05-15T12:40:10.721Z,31.10
2023-05-15T12:42:43.364Z,37.55
2023-05-15T12:45:15.333Z,35.60
2023-05-15T12:47:45.400Z,32.55
2023-05-15T12:50:17.227Z,34.15
2023-05-15T12:52:51.551Z,37.22
2023-05-15T12:55:19.955Z,34.67
2023-05-15T12:57:47.789Z,33.25
2023-05-15T13:00:16.609Z,32.45
2023-05-15T13:02:46.413Z,32.13
2023-05-15T13:05:14.883Z,31.63
2023-05-15T13:07:43.281Z,31.95
2023-05-15T13:10:12.783Z,26.88
2023-05-15T13:12:43.699Z,28.17
2023-05-15T13:15:24.198Z,23.15
2023-05-15T13:17:57.670Z,29.13
2023-05-15T13:20:26.164Z,27.60
2023-05-15T13:22:54.225Z,25.05
2023-05-15T13:25:22.424Z,23.60
2023-05-15T13:27:50.721Z,23.45
2023-05-15T13:30:19.377Z,21.80
2023-05-15T13:32:48.037Z,20.75
2023-05-15T13:35:17.761Z,21.67
2023-05-15T13:37:45.943Z,20.83
2023-05-15T13:40:14.485Z,21.63
2023-05-15T13:42:44.286Z,25.48
2023-05-15T13:45:13.759Z,23.90
2023-05-15T13:47:41.972Z,20.30
2023-05-15T13:50:11.230Z,20.95
2023-05-15T13:52:41.470Z,20.83
2023-05-15T13:55:10.922Z,20.77
2023-05-15T13:57:39.198Z,19.67
2023-05-15T14:00:10.823Z,19.17
2023-05-15T14:02:38.827Z,19.58
2023-05-15T14:05:07.335Z,24.45
2023-05-15T14:07:35.545Z,17.75
2023-05-15T14:10:07.911Z,18.02
2023-05-15T14:12:36.314Z,24.80
2023-05-15T14:15:04.876Z,19.80
2023-05-15T14:17:32.685Z,24.95
2023-05-15T14:20:01.169Z,24.75
2023-05-15T14:22:29.220Z,21.20
2023-05-15T14:24:57.311Z,19.63
2023-05-15T14:27:26.760Z,20.92
2023-05-15T14:29:56.710Z,25.33
2023-05-15T14:32:25.069Z,24.35
2023-05-15T14:34:53.213Z,26.83
2023-05-15T14:37:21.105Z,24.98
2023-05-15T14:39:49.228Z,22.08
2023-05-15T14:42:17.763Z,40.88
2023-05-15T14:44:47.067Z,39.05
2023-05-15T14:47:14.995Z,80.93
2023-05-15T14:49:43.220Z,46.90
2023-05-15T14:52:12.212Z,24.80
2023-05-15T14:54:40.365Z,34.28
2023-05-15T14:57:08.692Z,26.98
2023-05-15T14:59:36.730Z,22.13
2023-05-15T15:02:07.190Z,27.15
2023-05-15T15:04:35.361Z,23.58
2023-05-15T15:07:05.200Z,20.60
2023-05-15T15:09:33.360Z,18.50
2023-05-15T15:12:01.209Z,17.88
2023-05-15T15:14:29.247Z,16.98
2023-05-15T15:16:57.138Z,15.27
2023-05-15T15:19:26.481Z,16.25
2023-05-15T15:21:54.656Z,15.63
2023-05-15T15:24:22.619Z,15.48
2023-05-15T15:26:50.418Z,14.38
2023-05-15T15:29:18.430Z,17.35
2023-05-15T15:31:46.218Z,19.13
2023-05-15T15:34:14.164Z,15.63
2023-05-15T15:36:44.006Z,17.67
2023-05-15T15:39:13.177Z,17.27
2023-05-15T15:41:41.348Z,16.70
2023-05-15T15:44:09.337Z,17.02
2023-05-15T15:46:37.372Z,17.98
2023-05-15T15:49:06.791Z,17.77
2023-05-15T15:51:35.231Z,21.23
2023-05-15T15:54:04.444Z,19.83
2023-05-15T15:56:32.553Z,18.00
2023-05-15T15:59:00.563Z,21.42
2023-05-15T16:01:28.920Z,20.25
2023-05-15T16:03:56.801Z,16.13
2023-05-15T16:06:24.865Z,15.50
2023-05-15T16:08:52.680Z,19.10
2023-05-15T16:11:22.347Z,16.15
2023-05-15T16:13:50.403Z,19.83
2023-05-15T16:16:18.254Z,16.55
2023-05-15T16:18:46.561Z,19.40
2023-05-15T16:21:14.740Z,14.52
2023-05-15T16:23:43.198Z,12.30
2023-05-15T16:26:11.454Z,14.55
2023-05-15T16:28:40.866Z,12.88
2023-05-15T16:31:08.752Z,8.70
2023-05-15T16:33:37.016Z,13.73
2023-05-15T16:36:06.027Z,13.63
2023-05-15T16:38:34.206Z,14.23
2023-05-15T16:41:02.535Z,13.93
2023-05-15T16:43:30.734Z,12.18
2023-05-15T16:46:00.212Z,11.40
2023-05-15T16:48:28.886Z,13.65
2023-05-15T16:50:56.949Z,9.05
2023-05-15T16:53:25.173Z,16.90
2023-05-15T16:55:56.174Z,14.90
2023-05-15T16:58:24.132Z,10.45
2023-05-15T17:00:52.086Z,14.93
2023-05-15T17:03:21.634Z,13.38
2023-05-15T17:05:50.037Z,12.52
2023-05-15T17:08:18.145Z,9.45
2023-05-15T17:10:46.041Z,10.15
2023-05-15T17:13:14.634Z,11.73
2023-05-15T17:15:42.620Z,12.52
2023-05-15T17:18:10.781Z,11.85
2023-05-15T17:20:40.144Z,11.10
2023-05-15T17:23:08.175Z,12.48
2023-05-15T17:25:36.251Z,15.10
2023-05-15T17:28:04.383Z,9.95
2023-05-15T17:30:32.538Z,7.95
2023-05-15T17:33:00.802Z,10.98
2023-05-15T17:35:30.723Z,13.07
2023-05-15T17:38:02.012Z,6.57
2023-05-15T17:40:30.500Z,13.30
2023-05-15T17:42:58.411Z,6.60
2023-05-15T17:45:27.193Z,7.40
2023-05-15T17:48:02.418Z,9.90
2023-05-15T17:50:30.860Z,9.50
2023-05-15T17:52:59.050Z,5.85
2023-05-15T17:55:28.563Z,5.63
2023-05-15T17:57:56.637Z,7.68
2023-05-15T18:00:25.220Z,7.30
2023-05-15T18:02:53.876Z,10.07
2023-05-15T18:05:22.011Z,7.75
2023-05-15T18:07:50.002Z,13.43
2023-05-15T18:10:17.962Z,9.27
2023-05-15T18:12:47.670Z,7.50
2023-05-15T18:15:16.090Z,13.65
2023-05-15T18:17:44.097Z,11.77
2023-05-15T18:20:13.150Z,10.38
2023-05-15T18:22:41.190Z,9.88
2023-05-15T18:25:09.295Z,9.30
2023-05-15T18:27:37.532Z,10.60
2023-05-15T18:30:08.169Z,11.48
2023-05-15T18:32:36.243Z,9.75
2023-05-15T18:35:05.119Z,18.27
2023-05-15T18:37:33.174Z,15.65
2023-05-15T18:40:01.083Z,11.95
2023-05-15T18:42:29.617Z,14.27
2023-05-15T18:44:57.461Z,16.17
2023-05-15T18:47:27.083Z,17.27
2023-05-15T18:49:54.973Z,13.20
2023-05-15T18:52:23.215Z,14.30
2023-05-15T18:54:52.639Z,10.15
2023-05-15T18:57:20.711Z,13.77
2023-05-15T18:59:48.877Z,19.08
2023-05-15T19:02:16.930Z,14.60
2023-05-15T19:04:46.245Z,14.05
2023-05-15T19:07:14.218Z,16.58
2023-05-15T19:09:42.349Z,12.82
2023-05-15T19:12:10.432Z,13.90
2023-05-15T19:14:38.522Z,13.52
2023-05-15T19:17:07.209Z,10.80
2023-05-15T19:19:35.174Z,17.45
2023-05-15T19:22:12.807Z,16.50
2023-05-15T19:24:46.919Z,12.05
2023-05-15T19:27:21.417Z,14.93
2023-05-15T19:29:52.919Z,11.80
2023-05-15T19:32:21.345Z,10.32
2023-05-15T19:34:49.520Z,8.98
2023-05-15T19:37:18.710Z,11.20
2023-05-15T19:39:46.620Z,10.75
2023-05-15T19:42:14.626Z,11.65
2023-05-15T19:44:42.514Z,10.48
2023-05-15T19:47:10.558Z,11.77
2023-05-15T19:49:38.632Z,9.60
2023-05-15T19:52:06.720Z,8.75
2023-05-15T19:54:36.096Z,7.65
2023-05-15T19:57:04.161Z,12.43
2023-05-15T19:59:32.359Z,4.35
2023-05-15T20:02:01.861Z,6.78
2023-05-15T20:04:32.560Z,6.03
2023-05-15T20:07:00.831Z,4.32
2023-05-15T20:09:29.546Z,3.65
2023-05-15T20:11:58.787Z,2.95
2023-05-15T20:14:28.008Z,3.83
2023-05-15T20:16:56.390Z,3.50
2023-05-15T20:19:25.093Z,4.75
2023-05-15T20:21:53.348Z,1.73
2023-05-15T20:24:25.808Z,10.55
2023-05-15T20:26:53.908Z,4.35
2023-05-15T20:29:23.199Z,10.48
2023-05-15T20:31:51.191Z,5.55
2023-05-15T20:34:19.316Z,2.53
2023-05-15T20:36:47.370Z,4.15
2023-05-15T20:39:15.243Z,5.13
2023-05-15T20:41:43.227Z,4.55
2023-05-15T20:44:11.083Z,6.78
2023-05-15T20:46:41.478Z,5.97
2023-05-15T20:49:09.555Z,7.80
2023-05-15T20:51:37.638Z,4.45
2023-05-15T20:54:05.863Z,3.95
2023-05-15T20:56:33.780Z,6.40
2023-05-15T20:59:01.862Z,10.05
2023-05-15T21:01:29.898Z,4.32
2023-05-15T21:03:59.419Z,6.78
2023-05-15T21:06:27.509Z,11.43
2023-05-15T21:08:55.580Z,5.05
2023-05-15T21:11:23.661Z,8.20
2023-05-15T21:13:52.027Z,8.27
2023-05-15T21:16:20.240Z,7.53
2023-05-15T21:18:49.119Z,11.00
2023-05-15T21:21:21.294Z,11.05
2023-05-15T21:23:49.420Z,15.23
2023-05-15T21:26:17.256Z,7.18
2023-05-15T21:28:45.298Z,11.70
2023-05-15T21:31:13.141Z,8.30
2023-05-15T21:33:41.342Z,8.57
2023-05-15T21:36:09.750Z,10.20
2023-05-15T21:38:39.089Z,12.57
2023-05-15T21:41:06.959Z,10.82
2023-05-15T21:43:34.929Z,7.13
2023-05-15T21:46:03.446Z,11.27
2023-05-15T21:48:31.329Z,10.98
2023-05-15T21:50:59.444Z,15.00
2023-05-15T21:53:27.503Z,13.27
2023-05-15T21:56:01.020Z,18.67
2023-05-15T21:58:29.648Z,14.30
2023-05-15T22:00:57.574Z,18.17
2023-05-15T22:03:26.048Z,8.88
2023-05-15T22:05:54.053Z,11.15
2023-05-15T22:08:22.281Z,9.98
2023-05-15T22:10:50.588Z,10.60
2023-05-15T22:13:29.481Z,16.08
2023-05-15T22:15:57.364Z,16.70
2023-05-15T22:18:26.210Z,14.73
2023-05-15T22:20:54.648Z,14.63
2023-05-15T22:23:22.717Z,17.15
2023-05-15T22:25:50.553Z,13.68
2023-05-15T22:28:18.466Z,12.60
2023-05-15T22:30:48.090Z,19.80
2023-05-15T22:33:16.785Z,18.42
2023-05-15T22:35:45.061Z,16.13
2023-05-15T22:38:13.162Z,13.77
2023-05-15T22:40:41.239Z,12.90
2023-05-15T22:43:09.089Z,15.35
2023-05-15T22:45:37.134Z,18.70
2023-05-15T22:48:07.061Z,19.02
2023-05-15T22:50:35.169Z,12.88
2023-05-15T22:53:03.028Z,10.63
2023-05-15T22:55:30.784Z,17.85
2023-05-15T22:57:58.893Z,12.95
2023-05-15T23:00:26.891Z,14.90
2023-05-15T23:02:56.117Z,20.02
2023-05-15T23:05:25.934Z,11.15
2023-05-15T23:08:48.853Z,18.88
2023-05-15T23:11:20.516Z,14.02
2023-05-15T23:13:48.924Z,18.25
2023-05-15T23:16:17.002Z,15.90
2023-05-15T23:18:45.009Z,14.98
2023-05-15T23:21:14.381Z,24.05
2023-05-15T23:23:42.127Z,13.18
2023-05-15T23:26:10.005Z,20.42
2023-05-15T23:28:38.070Z,14.18
2023-05-15T23:31:06.379Z,13.95
2023-05-15T23:33:34.397Z,22.77
2023-05-15T23:36:02.495Z,13.85
2023-05-15T23:38:31.898Z,24.20
2023-05-15T23:40:59.725Z,16.52
2023-05-15T23:43:29.777Z,18.48
2023-05-15T23:45:57.856Z,18.08
2023-05-15T23:48:25.866Z,14.60
2023-05-15T23:50:54.729Z,16.42
2023-05-15T23:53:22.950Z,16.40
2023-05-15T23:55:52.484Z,20.48
2023-05-15T23:58:20.363Z,20.75
